Impacts METAR Board INFO
IDs:

KORD - Chicago/O'Hare Intl, IL, US

Updated at: 0223 UTC 17 Dec 2017
Potential Impact None Slight Moderate High
Time16/14Z 16/15Z 16/16Z 16/17Z 16/18Z 16/19Z 16/20Z 16/21Z 16/22Z 16/23Z 17/00Z 17/01Z 17/02Z
VIS10 10 10 10 10 10 10 10 10 10 10 10
CIG-- -- -- -- -- -- -- -- -- -- -- -- --
CoverSCTFEWFEWFEWFEWFEWFEWFEWFEWFEWCLRFEWFEW
FltCatVFRVFRVFRVFRVFRVFRVFRVFRVFRVFRVFRVFR
WX--------------------------
WDir20023024023024022024022000707040
WSpd8 5 9 9 7 4 5 4 0 0 4 5 4
WGst-- -- -- -- -- -- -- -- -- -- -- -- --
Raw hourly METARs
KORD 161351Z 20008KT 10SM SCT100 SCT250 01/M04 A2985 RMK AO2 SLP113 T00111044
KORD 161451Z 23005KT 10SM FEW120 FEW250 02/M04 A2987 RMK AO2 SLP122 T00221044 53016
KORD 161551Z 24009KT 10SM FEW120 FEW250 04/M04 A2990 RMK AO2 SLP129 T00391039
KORD 161651Z 23009KT 10SM FEW120 FEW150 05/M04 A2989 RMK AO2 SLP127 T00501039
KORD 161751Z 24007KT 10SM FEW250 06/M04 A2989 RMK AO2 SLP124 T00611039 10061 20011 50004
KORD 161851Z COR 22004KT FEW250 07/M04 A2988 RMK AO2 SLP123 T00671039
KORD 161951Z 24005KT 10SM FEW250 08/M03 A2988 RMK AO2 SLP124 T00781033
KORD 162051Z 22004KT 10SM FEW250 08/M03 A2991 RMK AO2 SLP131 T00781033 53007
KORD 162151Z 00000KT 10SM FEW250 07/M03 A2993 RMK AO2 SLP139 T00721033
KORD 162251Z 00000KT 10SM FEW250 03/M04 A2996 RMK AO2 SLP152 T00331039
KORD 162351Z 07004KT 10SM CLR 03/M03 A2998 RMK AO2 SLP158 T00281033 10078 20028 51025
KORD 170051Z 07005KT 10SM FEW250 03/M02 A3001 RMK AO2 SLP167 T00331017
KORD 170151Z 04004KT 10SM FEW250 02/M02 A3003 RMK AO2 SLP175 T00171017